sensor_id;sensor_type;location;lat;lon;timestamp;pressure;altitude;pressure_sealevel;temperature
20867;BMP280;10593;48.398;10.698;2023-07-31T00:02:21;96297.78;;;26.17
20867;BMP280;10593;48.398;10.698;2023-07-31T00:04:48;96300.66;;;26.14
20867;BMP280;10593;48.398;10.698;2023-07-31T00:07:14;96284.13;;;26.12
20867;BMP280;10593;48.398;10.698;2023-07-31T00:09:40;96288.69;;;26.10
20867;BMP280;10593;48.398;10.698;2023-07-31T00:12:06;96293.25;;;26.08
20867;BMP280;10593;48.398;10.698;2023-07-31T00:14:32;96298.63;;;26.06
20867;BMP280;10593;48.398;10.698;2023-07-31T00:16:58;96295.38;;;26.03
20867;BMP280;10593;48.398;10.698;2023-07-31T00:19:23;96303.41;;;26.01
20867;BMP280;10593;48.398;10.698;2023-07-31T00:21:49;96299.31;;;25.97
20867;BMP280;10593;48.398;10.698;2023-07-31T00:24:17;96295.97;;;25.95
20867;BMP280;10593;48.398;10.698;2023-07-31T00:26:42;96304.94;;;25.93
20867;BMP280;10593;48.398;10.698;2023-07-31T00:29:08;96304.94;;;25.93
20867;BMP280;10593;48.398;10.698;2023-07-31T00:31:34;96300.75;;;25.91
20867;BMP280;10593;48.398;10.698;2023-07-31T00:34:00;96300.16;;;25.87
20867;BMP280;10593;48.398;10.698;2023-07-31T00:36:25;96293.22;;;25.86
20867;BMP280;10593;48.398;10.698;2023-07-31T00:38:51;96290.88;;;25.82
20867;BMP280;10593;48.398;10.698;2023-07-31T00:41:16;96290.88;;;25.82
20867;BMP280;10593;48.398;10.698;2023-07-31T00:43:42;96288.50;;;25.79
20867;BMP280;10593;48.398;10.698;2023-07-31T00:46:08;96296.50;;;25.77
20867;BMP280;10593;48.398;10.698;2023-07-31T00:48:35;96289.69;;;25.75
20867;BMP280;10593;48.398;10.698;2023-07-31T00:51:01;96286.47;;;25.71
20867;BMP280;10593;48.398;10.698;2023-07-31T00:53:27;96289.34;;;25.68
20867;BMP280;10593;48.398;10.698;2023-07-31T00:55:54;96289.34;;;25.68
20867;BMP280;10593;48.398;10.698;2023-07-31T00:58:19;96291.22;;;25.66
20867;BMP280;10593;48.398;10.698;2023-07-31T01:00:45;96291.34;;;25.65
20867;BMP280;10593;48.398;10.698;2023-07-31T01:03:11;96290.63;;;25.63
20867;BMP280;10593;48.398;10.698;2023-07-31T01:06:13;96282.94;;;25.60
20867;BMP280;10593;48.398;10.698;2023-07-31T01:09:04;96280.44;;;25.58
20867;BMP280;10593;48.398;10.698;2023-07-31T01:11:39;96279.94;;;25.53
20867;BMP280;10593;48.398;10.698;2023-07-31T01:14:08;96281.84;;;25.51
20867;BMP280;10593;48.398;10.698;2023-07-31T01:16:35;96283.78;;;25.49
20867;BMP280;10593;48.398;10.698;2023-07-31T01:19:00;96276.94;;;25.47
20867;BMP280;10593;48.398;10.698;2023-07-31T01:27:23;96271.19;;;25.42
20867;BMP280;10593;48.398;10.698;2023-07-31T01:30:02;96264.59;;;25.36
20867;BMP280;10593;48.398;10.698;2023-07-31T01:32:29;96270.81;;;25.35
20867;BMP280;10593;48.398;10.698;2023-07-31T01:34:58;96267.47;;;25.33
20867;BMP280;10593;48.398;10.698;2023-07-31T01:37:29;96272.00;;;25.31
20867;BMP280;10593;48.398;10.698;2023-07-31T01:39:55;96267.69;;;25.30
20867;BMP280;10593;48.398;10.698;2023-07-31T01:42:21;96263.50;;;25.28
20867;BMP280;10593;48.398;10.698;2023-07-31T01:44:47;96258.47;;;25.25
20867;BMP280;10593;48.398;10.698;2023-07-31T01:47:12;96262.88;;;25.24
20867;BMP280;10593;48.398;10.698;2023-07-31T01:49:38;96257.84;;;25.21
20867;BMP280;10593;48.398;10.698;2023-07-31T01:52:04;96257.84;;;25.21
20867;BMP280;10593;48.398;10.698;2023-07-31T01:54:30;96253.63;;;25.19
20867;BMP280;10593;48.398;10.698;2023-07-31T01:56:55;96259.97;;;25.16
20867;BMP280;10593;48.398;10.698;2023-07-31T01:59:21;96251.38;;;25.14
20867;BMP280;10593;48.398;10.698;2023-07-31T02:01:47;96254.91;;;25.13
20867;BMP280;10593;48.398;10.698;2023-07-31T02:04:13;96248.94;;;25.11
20867;BMP280;10593;48.398;10.698;2023-07-31T02:06:39;96249.88;;;25.10
20867;BMP280;10593;48.398;10.698;2023-07-31T02:09:05;96238.75;;;25.07
20867;BMP280;10593;48.398;10.698;2023-07-31T02:11:30;96233.63;;;25.05
20867;BMP280;10593;48.398;10.698;2023-07-31T02:13:56;96237.31;;;25.03
20867;BMP280;10593;48.398;10.698;2023-07-31T02:16:22;96233.97;;;25.01
20867;BMP280;10593;48.398;10.698;2023-07-31T02:18:47;96233.97;;;25.01
20867;BMP280;10593;48.398;10.698;2023-07-31T02:21:14;96225.47;;;24.97
20867;BMP280;10593;48.398;10.698;2023-07-31T02:23:40;96225.47;;;24.97
20867;BMP280;10593;48.398;10.698;2023-07-31T02:26:06;96219.59;;;24.94
20867;BMP280;10593;48.398;10.698;2023-07-31T02:28:31;96217.19;;;24.91
20867;BMP280;10593;48.398;10.698;2023-07-31T02:30:57;96221.63;;;24.90
20867;BMP280;10593;48.398;10.698;2023-07-31T02:33:23;96213.00;;;24.88
20867;BMP280;10593;48.398;10.698;2023-07-31T02:35:48;96208.81;;;24.86
20867;BMP280;10593;48.398;10.698;2023-07-31T02:38:14;96204.59;;;24.83
20867;BMP280;10593;48.398;10.698;2023-07-31T02:40:40;96213.44;;;24.82
20867;BMP280;10593;48.398;10.698;2023-07-31T02:43:09;96210.09;;;24.80
20867;BMP280;10593;48.398;10.698;2023-07-31T02:45:34;96201.72;;;24.75
20867;BMP280;10593;48.398;10.698;2023-07-31T02:48:00;96204.22;;;24.77
20867;BMP280;10593;48.398;10.698;2023-07-31T02:50:26;96205.31;;;24.74
20867;BMP280;10593;48.398;10.698;2023-07-31T02:52:53;96205.31;;;24.74
20867;BMP280;10593;48.398;10.698;2023-07-31T02:55:19;96210.78;;;24.71
20867;BMP280;10593;48.398;10.698;2023-07-31T02:57:44;96201.22;;;24.70
20867;BMP280;10593;48.398;10.698;2023-07-31T03:00:10;96198.91;;;24.66
20867;BMP280;10593;48.398;10.698;2023-07-31T03:02:36;96198.91;;;24.66
20867;BMP280;10593;48.398;10.698;2023-07-31T03:05:02;96204.31;;;24.64
20867;BMP280;10593;48.398;10.698;2023-07-31T03:07:28;96203.59;;;24.62
20867;BMP280;10593;48.398;10.698;2023-07-31T03:09:55;96212.41;;;24.61
20867;BMP280;10593;48.398;10.698;2023-07-31T03:12:23;96212.75;;;24.57
20867;BMP280;10593;48.398;10.698;2023-07-31T03:14:48;96212.75;;;24.57
20867;BMP280;10593;48.398;10.698;2023-07-31T03:17:15;96202.47;;;24.54
20867;BMP280;10593;48.398;10.698;2023-07-31T03:19:41;96205.19;;;24.52
20867;BMP280;10593;48.398;10.698;2023-07-31T03:22:06;96208.03;;;24.49
20867;BMP280;10593;48.398;10.698;2023-07-31T03:24:32;96208.03;;;24.49
20867;BMP280;10593;48.398;10.698;2023-07-31T03:26:58;96206.44;;;24.47
20867;BMP280;10593;48.398;10.698;2023-07-31T03:29:25;96206.53;;;24.45
20867;BMP280;10593;48.398;10.698;2023-07-31T03:31:50;96206.69;;;24.44
20867;BMP280;10593;48.398;10.698;2023-07-31T03:34:16;96206.91;;;24.41
20867;BMP280;10593;48.398;10.698;2023-07-31T03:36:42;96207.72;;;24.41
20867;BMP280;10593;48.398;10.698;2023-07-31T03:39:08;96204.38;;;24.39
20867;BMP280;10593;48.398;10.698;2023-07-31T03:41:33;96201.03;;;24.37
20867;BMP280;10593;48.398;10.698;2023-07-31T03:43:59;96201.97;;;24.36
20867;BMP280;10593;48.398;10.698;2023-07-31T03:46:25;96206.50;;;24.34
20867;BMP280;10593;48.398;10.698;2023-07-31T03:48:51;96203.13;;;24.32
20867;BMP280;10593;48.398;10.698;2023-07-31T03:51:17;96203.13;;;24.32
20867;BMP280;10593;48.398;10.698;2023-07-31T03:53:44;96200.63;;;24.31
20867;BMP280;10593;48.398;10.698;2023-07-31T03:56:10;96199.78;;;24.30
20867;BMP280;10593;48.398;10.698;2023-07-31T03:58:35;96194.75;;;24.27
20867;BMP280;10593;48.398;10.698;2023-07-31T04:01:03;96202.00;;;24.24
20867;BMP280;10593;48.398;10.698;2023-07-31T04:03:29;96202.00;;;24.24
20867;BMP280;10593;48.398;10.698;2023-07-31T04:05:55;96204.03;;;24.20
20867;BMP280;10593;48.398;10.698;2023-07-31T04:08:22;96204.03;;;24.20
20867;BMP280;10593;48.398;10.698;2023-07-31T04:10:48;96197.06;;;24.19
20867;BMP280;10593;48.398;10.698;2023-07-31T04:13:14;96197.06;;;24.19
20867;BMP280;10593;48.398;10.698;2023-07-31T04:15:40;96187.66;;;24.17
20867;BMP280;10593;48.398;10.698;2023-07-31T04:18:07;96184.16;;;24.16
20867;BMP280;10593;48.398;10.698;2023-07-31T04:20:33;96192.19;;;24.15
20867;BMP280;10593;48.398;10.698;2023-07-31T04:22:59;96195.75;;;24.14
20867;BMP280;10593;48.398;10.698;2023-07-31T04:25:24;96184.50;;;24.12
20867;BMP280;10593;48.398;10.698;2023-07-31T04:27:50;96184.63;;;24.10
20867;BMP280;10593;48.398;10.698;2023-07-31T04:30:17;96180.31;;;24.09
20867;BMP280;10593;48.398;10.698;2023-07-31T04:32:42;96175.06;;;24.09
20867;BMP280;10593;48.398;10.698;2023-07-31T04:35:08;96175.16;;;24.08
20867;BMP280;10593;48.398;10.698;2023-07-31T04:37:34;96178.75;;;24.07
20867;BMP280;10593;48.398;10.698;2023-07-31T04:39:59;96185.81;;;24.06
20867;BMP280;10593;48.398;10.698;2023-07-31T04:42:26;96182.31;;;24.06
20867;BMP280;10593;48.398;10.698;2023-07-31T04:44:51;96181.47;;;24.05
20867;BMP280;10593;48.398;10.698;2023-07-31T04:47:18;96180.56;;;24.06
20867;BMP280;10593;48.398;10.698;2023-07-31T04:49:44;96180.66;;;24.05
20867;BMP280;10593;48.398;10.698;2023-07-31T04:52:10;96185.81;;;24.06
20867;BMP280;10593;48.398;10.698;2023-07-31T04:54:35;96185.81;;;24.06
20867;BMP280;10593;48.398;10.698;2023-07-31T04:57:02;96178.97;;;24.04
20867;BMP280;10593;48.398;10.698;2023-07-31T04:59:27;96178.97;;;24.04
20867;BMP280;10593;48.398;10.698;2023-07-31T05:09:39;96191.78;;;24.08
20867;BMP280;10593;48.398;10.698;2023-07-31T05:12:05;96191.78;;;24.08
20867;BMP280;10593;48.398;10.698;2023-07-31T05:14:31;96193.69;;;24.06
20867;BMP280;10593;48.398;10.698;2023-07-31T05:16:57;96188.44;;;24.06
20867;BMP280;10593;48.398;10.698;2023-07-31T05:19:23;96181.38;;;24.07
20867;BMP280;10593;48.398;10.698;2023-07-31T05:21:48;96186.63;;;24.07
20867;BMP280;10593;48.398;10.698;2023-07-31T05:24:14;96186.00;;;24.03
20867;BMP280;10593;48.398;10.698;2023-07-31T05:26:39;96186.00;;;24.03
20867;BMP280;10593;48.398;10.698;2023-07-31T05:29:05;96199.66;;;24.08
20867;BMP280;10593;48.398;10.698;2023-07-31T05:31:31;96196.09;;;24.09
20867;BMP280;10593;48.398;10.698;2023-07-31T05:33:58;96201.44;;;24.08
20867;BMP280;10593;48.398;10.698;2023-07-31T05:36:23;96194.41;;;24.08
20867;BMP280;10593;48.398;10.698;2023-07-31T05:38:49;96194.41;;;24.08
20867;BMP280;10593;48.398;10.698;2023-07-31T05:41:16;96197.75;;;24.10
20867;BMP280;10593;48.398;10.698;2023-07-31T05:43:43;96202.16;;;24.10
20867;BMP280;10593;48.398;10.698;2023-07-31T05:46:09;96195.13;;;24.10
20867;BMP280;10593;48.398;10.698;2023-07-31T05:48:35;96194.19;;;24.11
20867;BMP280;10593;48.398;10.698;2023-07-31T05:51:02;96192.38;;;24.12
20867;BMP280;10593;48.398;10.698;2023-07-31T05:53:28;96187.88;;;24.14
20867;BMP280;10593;48.398;10.698;2023-07-31T05:55:55;96184.41;;;24.13
20867;BMP280;10593;48.398;10.698;2023-07-31T05:58:21;96184.31;;;24.15
20867;BMP280;10593;48.398;10.698;2023-07-31T06:00:47;96185.97;;;24.16
20867;BMP280;10593;48.398;10.698;2023-07-31T06:03:13;96192.91;;;24.17
20867;BMP280;10593;48.398;10.698;2023-07-31T06:05:40;96188.47;;;24.17
20867;BMP280;10593;48.398;10.698;2023-07-31T06:08:06;96185.84;;;24.17
20867;BMP280;10593;48.398;10.698;2023-07-31T06:10:32;96183.84;;;24.21
20867;BMP280;10593;48.398;10.698;2023-07-31T06:12:58;96183.84;;;24.21
20867;BMP280;10593;48.398;10.698;2023-07-31T06:15:25;96174.19;;;24.21
20867;BMP280;10593;48.398;10.698;2023-07-31T06:17:51;96176.81;;;24.21
20867;BMP280;10593;48.398;10.698;2023-07-31T06:20:18;96175.88;;;24.22
20867;BMP280;10593;48.398;10.698;2023-07-31T06:22:44;96180.03;;;24.25
20867;BMP280;10593;48.398;10.698;2023-07-31T06:25:09;96180.03;;;24.25
20867;BMP280;10593;48.398;10.698;2023-07-31T06:27:37;96168.59;;;24.26
20867;BMP280;10593;48.398;10.698;2023-07-31T06:30:03;96173.72;;;24.27
20867;BMP280;10593;48.398;10.698;2023-07-31T06:32:28;96170.16;;;24.28
20867;BMP280;10593;48.398;10.698;2023-07-31T06:34:54;96170.06;;;24.30
20867;BMP280;10593;48.398;10.698;2023-07-31T06:37:21;96171.72;;;24.31
20867;BMP280;10593;48.398;10.698;2023-07-31T06:39:47;96164.66;;;24.31
20867;BMP280;10593;48.398;10.698;2023-07-31T06:42:14;96173.31;;;24.33
20867;BMP280;10593;48.398;10.698;2023-07-31T06:44:40;96173.31;;;24.33
20867;BMP280;10593;48.398;10.698;2023-07-31T06:47:05;96175.09;;;24.33
20867;BMP280;10593;48.398;10.698;2023-07-31T06:49:34;96173.31;;;24.33
20867;BMP280;10593;48.398;10.698;2023-07-31T06:52:01;96177.47;;;24.36
20867;BMP280;10593;48.398;10.698;2023-07-31T06:54:27;96177.38;;;24.37
20867;BMP280;10593;48.398;10.698;2023-07-31T06:56:52;96182.50;;;24.39
20867;BMP280;10593;48.398;10.698;2023-07-31T06:59:18;96173.56;;;24.41
20867;BMP280;10593;48.398;10.698;2023-07-31T07:01:44;96175.25;;;24.42
20867;BMP280;10593;48.398;10.698;2023-07-31T07:04:18;96179.44;;;24.45
20867;BMP280;10593;48.398;10.698;2023-07-31T07:06:45;96173.13;;;24.47
20867;BMP280;10593;48.398;10.698;2023-07-31T07:09:12;96169.56;;;24.48
20867;BMP280;10593;48.398;10.698;2023-07-31T07:11:39;96166.59;;;24.53
20867;BMP280;10593;48.398;10.698;2023-07-31T07:14:05;96166.59;;;24.53
20867;BMP280;10593;48.398;10.698;2023-07-31T07:16:30;96165.69;;;24.54
20867;BMP280;10593;48.398;10.698;2023-07-31T07:18:56;96161.00;;;24.57
20867;BMP280;10593;48.398;10.698;2023-07-31T07:21:23;96156.38;;;24.61
20867;BMP280;10593;48.398;10.698;2023-07-31T07:23:50;96156.38;;;24.61
20867;BMP280;10593;48.398;10.698;2023-07-31T07:26:16;96160.44;;;24.65
20867;BMP280;10593;48.398;10.698;2023-07-31T07:28:41;96159.38;;;24.67
20867;BMP280;10593;48.398;10.698;2023-07-31T08:42:54;96157.41;;;24.93
20867;BMP280;10593;48.398;10.698;2023-07-31T08:45:20;96157.41;;;24.93
20867;BMP280;10593;48.398;10.698;2023-07-31T08:47:49;96152.06;;;24.94
20867;BMP280;10593;48.398;10.698;2023-07-31T08:50:19;96151.72;;;24.99
20867;BMP280;10593;48.398;10.698;2023-07-31T08:52:48;96136.56;;;25.02
20867;BMP280;10593;48.398;10.698;2023-07-31T08:55:14;96136.31;;;25.05
20867;BMP280;10593;48.398;10.698;2023-07-31T08:57:41;96126.50;;;25.07
20867;BMP280;10593;48.398;10.698;2023-07-31T09:00:09;96132.38;;;25.11
20867;BMP280;10593;48.398;10.698;2023-07-31T09:05:12;96142.56;;;25.15
20867;BMP280;10593;48.398;10.698;2023-07-31T09:07:39;96135.63;;;25.14
20867;BMP280;10593;48.398;10.698;2023-07-31T09:10:05;96129.41;;;25.15
20867;BMP280;10593;48.398;10.698;2023-07-31T09:12:34;96133.56;;;25.18
20867;BMP280;10593;48.398;10.698;2023-07-31T09:15:00;96139.56;;;25.20
20867;BMP280;10593;48.398;10.698;2023-07-31T09:17:31;96127.16;;;25.22
20867;BMP280;10593;48.398;10.698;2023-07-31T09:19:57;96129.66;;;25.23
20867;BMP280;10593;48.398;10.698;2023-07-31T09:22:34;96126.94;;;25.25
20867;BMP280;10593;48.398;10.698;2023-07-31T09:25:26;96125.97;;;25.26
20867;BMP280;10593;48.398;10.698;2023-07-31T09:28:01;96124.28;;;25.25
20867;BMP280;10593;48.398;10.698;2023-07-31T09:30:27;96117.00;;;25.28
20867;BMP280;10593;48.398;10.698;2023-07-31T09:33:05;96117.00;;;25.28
20867;BMP280;10593;48.398;10.698;2023-07-31T09:35:34;96106.94;;;25.33
20867;BMP280;10593;48.398;10.698;2023-07-31T09:38:12;96106.94;;;25.33
20867;BMP280;10593;48.398;10.698;2023-07-31T09:40:44;96086.25;;;25.40
20867;BMP280;10593;48.398;10.698;2023-07-31T09:43:19;96080.03;;;25.41
20867;BMP280;10593;48.398;10.698;2023-07-31T09:45:45;96080.03;;;25.41
20867;BMP280;10593;48.398;10.698;2023-07-31T09:48:14;96075.63;;;25.41
20867;BMP280;10593;48.398;10.698;2023-07-31T10:03:42;96048.56;;;25.61
20867;BMP280;10593;48.398;10.698;2023-07-31T13:01:23;95860.81;;;27.21
20867;BMP280;10593;48.398;10.698;2023-07-31T13:21:57;95837.25;;;27.67
20867;BMP280;10593;48.398;10.698;2023-07-31T13:24:23;95837.25;;;27.67
20867;BMP280;10593;48.398;10.698;2023-07-31T13:26:49;95836.13;;;27.70
20867;BMP280;10593;48.398;10.698;2023-07-31T13:29:15;95830.59;;;27.73
20867;BMP280;10593;48.398;10.698;2023-07-31T13:31:40;95831.97;;;27.77
20867;BMP280;10593;48.398;10.698;2023-07-31T13:34:06;95832.66;;;27.79
20867;BMP280;10593;48.398;10.698;2023-07-31T13:36:32;95825.59;;;27.79
20867;BMP280;10593;48.398;10.698;2023-07-31T13:39:00;95818.47;;;27.80
20867;BMP280;10593;48.398;10.698;2023-07-31T13:41:26;95814.84;;;27.81
20867;BMP280;10593;48.398;10.698;2023-07-31T13:43:53;95812.09;;;27.82
20867;BMP280;10593;48.398;10.698;2023-07-31T13:46:18;95815.53;;;27.83
20867;BMP280;10593;48.398;10.698;2023-07-31T13:48:44;95819.03;;;27.83
20867;BMP280;10593;48.398;10.698;2023-07-31T13:51:11;95813.75;;;27.83
20867;BMP280;10593;48.398;10.698;2023-07-31T13:53:37;95810.25;;;27.83
20867;BMP280;10593;48.398;10.698;2023-07-31T13:56:03;95819.16;;;27.82
20867;BMP280;10593;48.398;10.698;2023-07-31T13:58:28;95819.16;;;27.82
20867;BMP280;10593;48.398;10.698;2023-07-31T14:00:54;95806.81;;;27.82
20867;BMP280;10593;48.398;10.698;2023-07-31T14:03:20;95802.50;;;27.81
20867;BMP280;10593;48.398;10.698;2023-07-31T14:05:45;95803.47;;;27.80
20867;BMP280;10593;48.398;10.698;2023-07-31T14:08:11;95809.56;;;27.81
20867;BMP280;10593;48.398;10.698;2023-07-31T14:10:37;95799.00;;;27.81
20867;BMP280;10593;48.398;10.698;2023-07-31T14:13:02;95801.66;;;27.81
20867;BMP280;10593;48.398;10.698;2023-07-31T14:15:28;95791.09;;;27.81
20867;BMP280;10593;48.398;10.698;2023-07-31T14:17:54;95796.38;;;27.81
20867;BMP280;10593;48.398;10.698;2023-07-31T14:20:19;95792.06;;;27.80
20867;BMP280;10593;48.398;10.698;2023-07-31T14:22:45;95794.88;;;27.78
20867;BMP280;10593;48.398;10.698;2023-07-31T14:25:11;95794.88;;;27.78
20867;BMP280;10593;48.398;10.698;2023-07-31T14:27:37;95788.72;;;27.78
20867;BMP280;10593;48.398;10.698;2023-07-31T14:30:04;95798.31;;;27.79
20867;BMP280;10593;48.398;10.698;2023-07-31T14:32:30;95794.00;;;27.78
20867;BMP280;10593;48.398;10.698;2023-07-31T14:34:56;95794.88;;;27.78
20867;BMP280;10593;48.398;10.698;2023-07-31T14:37:22;95800.97;;;27.79
20867;BMP280;10593;48.398;10.698;2023-07-31T14:39:48;95794.88;;;27.78
20867;BMP280;10593;48.398;10.698;2023-07-31T14:42:14;95793.19;;;27.77
20867;BMP280;10593;48.398;10.698;2023-07-31T14:44:42;95795.00;;;27.77
20867;BMP280;10593;48.398;10.698;2023-07-31T14:47:09;95789.72;;;27.77
20867;BMP280;10593;48.398;10.698;2023-07-31T14:49:36;95798.47;;;27.77
20867;BMP280;10593;48.398;10.698;2023-07-31T14:52:02;95798.47;;;27.77
20867;BMP280;10593;48.398;10.698;2023-07-31T14:54:27;95798.47;;;27.77
20867;BMP280;10593;48.398;10.698;2023-07-31T14:56:53;95799.31;;;27.78
20867;BMP280;10593;48.398;10.698;2023-07-31T14:59:19;95799.97;;;27.80
20867;BMP280;10593;48.398;10.698;2023-07-31T15:01:44;95796.38;;;27.81
20867;BMP280;10593;48.398;10.698;2023-07-31T15:04:10;95801.66;;;27.81
20867;BMP280;10593;48.398;10.698;2023-07-31T15:06:36;95800.66;;;27.82
20867;BMP280;10593;48.398;10.698;2023-07-31T15:09:01;95795.38;;;27.82
20867;BMP280;10593;48.398;10.698;2023-07-31T15:11:27;95799.69;;;27.83
20867;BMP280;10593;48.398;10.698;2023-07-31T15:13:53;95804.16;;;27.82
20867;BMP280;10593;48.398;10.698;2023-07-31T15:16:19;95791.09;;;27.81
20867;BMP280;10593;48.398;10.698;2023-07-31T15:18:45;95793.59;;;27.82
20867;BMP280;10593;48.398;10.698;2023-07-31T15:21:45;95783.03;;;27.82
20867;BMP280;10593;48.398;10.698;2023-07-31T15:24:10;95783.03;;;27.82
20867;BMP280;10593;48.398;10.698;2023-07-31T15:26:38;95789.97;;;27.83
20867;BMP280;10593;48.398;10.698;2023-07-31T15:29:06;95772.03;;;27.87
20867;BMP280;10593;48.398;10.698;2023-07-31T15:31:38;95772.03;;;27.87
20867;BMP280;10593;48.398;10.698;2023-07-31T15:34:04;95769.41;;;27.87
20867;BMP280;10593;48.398;10.698;2023-07-31T15:36:31;95769.41;;;27.87
20867;BMP280;10593;48.398;10.698;2023-07-31T15:38:57;95764.94;;;27.87
20867;BMP280;10593;48.398;10.698;2023-07-31T15:41:23;95764.13;;;27.87
20867;BMP280;10593;48.398;10.698;2023-07-31T15:43:51;95757.97;;;27.86
20867;BMP280;10593;48.398;10.698;2023-07-31T15:46:17;95758.84;;;27.87
20867;BMP280;10593;48.398;10.698;2023-07-31T15:48:44;95753.56;;;27.87
20867;BMP280;10593;48.398;10.698;2023-07-31T15:51:10;95746.44;;;27.87
20867;BMP280;10593;48.398;10.698;2023-07-31T15:53:37;95744.66;;;27.88
20867;BMP280;10593;48.398;10.698;2023-07-31T15:56:03;95742.69;;;27.90
20867;BMP280;10593;48.398;10.698;2023-07-31T15:58:29;95744.34;;;27.91
20867;BMP280;10593;48.398;10.698;2023-07-31T16:52:09;95706.09;;;27.95
20867;BMP280;10593;48.398;10.698;2023-07-31T16:54:36;95704.97;;;27.97
20867;BMP280;10593;48.398;10.698;2023-07-31T16:57:01;95704.97;;;27.97
20867;BMP280;10593;48.398;10.698;2023-07-31T16:59:28;95704.84;;;27.99
20867;BMP280;10593;48.398;10.698;2023-07-31T19:31:52;95650.91;;;27.92
20867;BMP280;10593;48.398;10.698;2023-07-31T19:34:18;95648.13;;;27.93
20867;BMP280;10593;48.398;10.698;2023-07-31T19:36:44;95642.84;;;27.93
20867;BMP280;10593;48.398;10.698;2023-07-31T19:39:13;95642.84;;;27.93
20867;BMP280;10593;48.398;10.698;2023-07-31T19:41:39;95644.66;;;27.93
20867;BMP280;10593;48.398;10.698;2023-07-31T19:44:07;95650.91;;;27.92
20867;BMP280;10593;48.398;10.698;2023-07-31T19:46:33;95650.91;;;27.92
20867;BMP280;10593;48.398;10.698;2023-07-31T19:49:00;95636.03;;;27.91
20867;BMP280;10593;48.398;10.698;2023-07-31T19:51:26;95637.69;;;27.92
20867;BMP280;10593;48.398;10.698;2023-07-31T19:53:52;95640.34;;;27.92
20867;BMP280;10593;48.398;10.698;2023-07-31T19:56:17;95641.47;;;27.89
20867;BMP280;10593;48.398;10.698;2023-07-31T19:58:43;95634.38;;;27.90
20867;BMP280;10593;48.398;10.698;2023-07-31T20:01:10;95626.59;;;27.88
20867;BMP280;10593;48.398;10.698;2023-07-31T20:03:35;95619.50;;;27.89
20867;BMP280;10593;48.398;10.698;2023-07-31T20:06:01;95615.34;;;27.86
20867;BMP280;10593;48.398;10.698;2023-07-31T20:08:27;95619.81;;;27.86
20867;BMP280;10593;48.398;10.698;2023-07-31T20:10:53;95612.03;;;27.84
20867;BMP280;10593;48.398;10.698;2023-07-31T20:13:19;95607.84;;;27.82
20867;BMP280;10593;48.398;10.698;2023-07-31T20:15:45;95609.69;;;27.81
20867;BMP280;10593;48.398;10.698;2023-07-31T20:18:12;95609.69;;;27.81
20867;BMP280;10593;48.398;10.698;2023-07-31T20:20:38;95616.75;;;27.81
20867;BMP280;10593;48.398;10.698;2023-07-31T20:23:03;95610.78;;;27.79
20867;BMP280;10593;48.398;10.698;2023-07-31T20:25:29;95610.97;;;27.77
20867;BMP280;10593;48.398;10.698;2023-07-31T20:28:00;95611.94;;;27.76
20867;BMP280;10593;48.398;10.698;2023-07-31T20:30:25;95611.09;;;27.76
20867;BMP280;10593;48.398;10.698;2023-07-31T20:32:51;95592.91;;;27.73
20867;BMP280;10593;48.398;10.698;2023-07-31T20:35:17;95592.91;;;27.73
20867;BMP280;10593;48.398;10.698;2023-07-31T20:37:43;95598.19;;;27.73
20867;BMP280;10593;48.398;10.698;2023-07-31T20:40:10;95600.13;;;27.71
20867;BMP280;10593;48.398;10.698;2023-07-31T20:42:38;95591.34;;;27.70
20867;BMP280;10593;48.398;10.698;2023-07-31T20:45:04;95587.19;;;27.68
20867;BMP280;10593;48.398;10.698;2023-07-31T20:47:30;95584.69;;;27.66
20867;BMP280;10593;48.398;10.698;2023-07-31T20:49:58;95586.50;;;27.66
20867;BMP280;10593;48.398;10.698;2023-07-31T20:52:24;95590.13;;;27.65
20867;BMP280;10593;48.398;10.698;2023-07-31T20:54:50;95587.63;;;27.63
20867;BMP280;10593;48.398;10.698;2023-07-31T20:57:17;95587.63;;;27.63
20867;BMP280;10593;48.398;10.698;2023-07-31T20:59:43;95565.00;;;27.61
20867;BMP280;10593;48.398;10.698;2023-07-31T21:02:08;95565.00;;;27.61
20867;BMP280;10593;48.398;10.698;2023-07-31T21:04:34;95565.13;;;27.59
20867;BMP280;10593;48.398;10.698;2023-07-31T21:07:01;95566.94;;;27.59
20867;BMP280;10593;48.398;10.698;2023-07-31T21:09:26;95570.56;;;27.58
20867;BMP280;10593;48.398;10.698;2023-07-31T21:11:52;95565.41;;;27.56
20867;BMP280;10593;48.398;10.698;2023-07-31T21:14:18;95568.19;;;27.55
20867;BMP280;10593;48.398;10.698;2023-07-31T21:16:44;95566.53;;;27.54
20867;BMP280;10593;48.398;10.698;2023-07-31T21:19:09;95559.59;;;27.53
20867;BMP280;10593;48.398;10.698;2023-07-31T21:21:35;95557.13;;;27.51
20867;BMP280;10593;48.398;10.698;2023-07-31T21:24:01;95551.00;;;27.51
20867;BMP280;10593;48.398;10.698;2023-07-31T21:26:27;95536.13;;;27.50
20867;BMP280;10593;48.398;10.698;2023-07-31T21:28:52;95545.03;;;27.49
20867;BMP280;10593;48.398;10.698;2023-07-31T21:31:18;95532.81;;;27.48
20867;BMP280;10593;48.398;10.698;2023-07-31T21:33:44;95532.81;;;27.48
20867;BMP280;10593;48.398;10.698;2023-07-31T21:36:10;95521.56;;;27.46
20867;BMP280;10593;48.398;10.698;2023-07-31T21:38:36;95520.91;;;27.44
20867;BMP280;10593;48.398;10.698;2023-07-31T21:41:01;95537.97;;;27.40
20867;BMP280;10593;48.398;10.698;2023-07-31T21:43:28;95537.97;;;27.40
20867;BMP280;10593;48.398;10.698;2023-07-31T21:45:54;95537.84;;;27.41
20867;BMP280;10593;48.398;10.698;2023-07-31T21:48:20;95530.06;;;27.40
20867;BMP280;10593;48.398;10.698;2023-07-31T21:50:45;95527.59;;;27.38
